Time;durP1;ratioP1;P1;durP2;ratioP2;P2;SDS_P1;SDS_P2;PMS_P1;PMS_P2;Temp;Humidity;BMP_temperature;BMP_pressure;BME280_temperature;BME280_humidity;BME280_pressure;Samples;Min_cycle;Max_cycle;Signal;HPM_P1;HPM_P2
2020/12/21 00:01:55;;;;;;;38.43;15.40;;;2.00;99.90;;;;;;4379352;32;20436;-74
2020/12/21 00:04:21;;;;;;;36.40;16.43;;;2.00;99.90;;;;;;4379371;32;20144;-75
2020/12/21 00:06:55;;;;;;;38.87;16.80;;;1.90;99.90;;;;;;4379277;32;20144;-74
2020/12/21 00:09:22;;;;;;;39.00;16.60;;;1.90;99.90;;;;;;4380490;32;20163;-74
2020/12/21 00:11:49;;;;;;;34.90;15.57;;;1.90;99.90;;;;;;4379319;32;20199;-74
2020/12/21 00:14:16;;;;;;;37.50;16.33;;;1.90;99.90;;;;;;4379443;32;20147;-74
2020/12/21 00:16:52;;;;;;;35.47;15.70;;;1.90;99.90;;;;;;4379334;32;20178;-74
2020/12/21 00:19:20;;;;;;;37.43;16.43;;;2.00;99.90;;;;;;4380416;32;20163;-75
2020/12/21 00:21:49;;;;;;;36.37;15.53;;;2.00;99.90;;;;;;4379341;32;20139;-74
2020/12/21 00:24:17;;;;;;;35.63;15.53;;;1.90;99.90;;;;;;4379126;32;20190;-74
2020/12/21 00:26:45;;;;;;;36.33;15.07;;;1.80;99.90;;;;;;4379339;32;20139;-73
2020/12/21 00:29:12;;;;;;;36.93;15.37;;;1.80;99.90;;;;;;4379264;32;20170;-74
2020/12/21 00:31:38;;;;;;;36.77;16.13;;;1.80;99.90;;;;;;4379265;32;20144;-74
2020/12/21 00:34:06;;;;;;;41.00;16.60;;;1.70;99.90;;;;;;4380233;32;20349;-74
2020/12/21 00:36:37;;;;;;;36.53;15.17;;;1.90;99.90;;;;;;4380734;32;20437;-74
2020/12/21 00:39:05;;;;;;;39.27;15.90;;;1.90;99.90;;;;;;4378670;32;20201;-76
2020/12/21 00:41:32;;;;;;;39.20;16.23;;;1.90;99.90;;;;;;4378726;32;20140;-74
2020/12/21 00:43:59;;;;;;;40.83;16.87;;;1.90;99.90;;;;;;4378511;32;20148;-74
2020/12/21 00:46:28;;;;;;;40.73;16.80;;;1.80;99.90;;;;;;4379118;32;20385;-75
2020/12/21 00:48:56;;;;;;;37.17;15.20;;;1.80;99.90;;;;;;4379111;32;20517;-74
2020/12/21 00:51:22;;;;;;;39.30;15.13;;;1.80;99.90;;;;;;4379489;32;20195;-74
2020/12/21 00:53:49;;;;;;;37.97;15.43;;;1.80;99.90;;;;;;4378878;32;20195;-74
2020/12/21 00:56:19;;;;;;;39.97;16.10;;;1.70;99.90;;;;;;4380004;32;20533;-74
2020/12/21 00:58:46;;;;;;;40.33;16.33;;;1.80;99.90;;;;;;4366281;32;20156;-75
2020/12/21 01:01:20;;;;;;;35.50;15.87;;;1.80;99.90;;;;;;4379535;32;20166;-74
2020/12/21 01:03:57;;;;;;;33.23;14.03;;;1.90;99.90;;;;;;4379037;32;20152;-74
2020/12/21 01:06:24;;;;;;;35.33;15.17;;;1.80;99.90;;;;;;4378510;32;20139;-75
2020/12/21 01:08:56;;;;;;;33.03;14.77;;;1.90;99.90;;;;;;4379012;32;20383;-74
2020/12/21 01:11:23;;;;;;;36.00;14.53;;;1.90;99.90;;;;;;4379011;32;20190;-75
2020/12/21 01:13:50;;;;;;;35.53;15.13;;;2.00;99.90;;;;;;4380464;32;20249;-74
2020/12/21 01:16:20;;;;;;;31.30;14.03;;;2.00;99.90;;;;;;4378758;32;20186;-74
2020/12/21 01:18:48;;;;;;;29.23;13.10;;;2.00;99.90;;;;;;4379195;32;20528;-74
2020/12/21 01:21:28;;;;;;;32.37;14.30;;;2.00;99.90;;;;;;4378894;32;20151;-75
2020/12/21 01:23:56;;;;;;;30.73;12.87;;;2.00;99.90;;;;;;4378901;32;20140;-74
2020/12/21 01:26:23;;;;;;;29.47;13.87;;;2.00;99.90;;;;;;4378893;32;20429;-75
2020/12/21 01:28:50;;;;;;;31.67;14.53;;;2.00;99.90;;;;;;4380336;32;20187;-76
2020/12/21 01:31:17;;;;;;;31.77;13.60;;;2.00;99.90;;;;;;4378059;32;20263;-76
2020/12/21 01:33:45;;;;;;;28.73;13.23;;;2.10;99.90;;;;;;4378863;32;20470;-76
2020/12/21 01:36:11;;;;;;;29.00;13.57;;;2.10;99.90;;;;;;4378846;32;20174;-74
2020/12/21 01:38:38;;;;;;;28.90;13.00;;;2.10;99.90;;;;;;4380046;32;20492;-74
2020/12/21 01:41:05;;;;;;;27.77;12.73;;;2.10;99.90;;;;;;4378982;32;20186;-74
2020/12/21 01:43:31;;;;;;;28.77;12.90;;;2.10;99.90;;;;;;4378803;32;20182;-74
2020/12/21 01:46:16;;;;;;;31.23;13.37;;;2.20;99.90;;;;;;4379938;32;20463;-74
2020/12/21 01:48:44;;;;;;;31.00;13.23;;;2.20;99.90;;;;;;4380406;32;20155;-74
2020/12/21 01:51:20;;;;;;;30.47;13.60;;;2.30;99.90;;;;;;4378451;32;20163;-74
2020/12/21 01:53:46;;;;;;;29.77;12.73;;;2.30;99.90;;;;;;4379955;32;20171;-74
2020/12/21 01:56:16;;;;;;;30.73;13.43;;;2.30;99.90;;;;;;4380764;32;20159;-74
2020/12/21 01:58:47;;;;;;;31.23;13.73;;;2.30;99.90;;;;;;4381431;32;20159;-74
2020/12/21 02:01:15;;;;;;;29.30;13.40;;;2.30;99.90;;;;;;4381664;32;20440;-74
2020/12/21 02:03:44;;;;;;;28.70;12.97;;;2.30;99.90;;;;;;4381634;32;20144;-74
2020/12/21 02:06:11;;;;;;;30.83;13.80;;;2.30;99.90;;;;;;4381121;32;20148;-74
2020/12/21 02:08:38;;;;;;;31.40;13.57;;;2.30;99.90;;;;;;4381298;32;20194;-75
2020/12/21 02:11:05;;;;;;;28.23;13.77;;;2.30;99.90;;;;;;4381112;32;20159;-74
2020/12/21 02:13:32;;;;;;;32.23;14.17;;;2.20;99.90;;;;;;4381673;32;20171;-75
2020/12/21 02:16:00;;;;;;;30.80;13.53;;;2.10;99.90;;;;;;4381061;32;20215;-74
2020/12/21 02:18:27;;;;;;;32.37;14.13;;;2.10;99.90;;;;;;4381764;32;20458;-74
2020/12/21 02:20:53;;;;;;;29.97;14.33;;;2.20;99.90;;;;;;4380621;32;20189;-76
2020/12/21 02:23:20;;;;;;;32.30;13.73;;;2.30;99.90;;;;;;4381074;32;20176;-74
2020/12/21 02:25:46;;;;;;;32.40;14.27;;;2.30;99.90;;;;;;4381072;32;20454;-74
2020/12/21 02:28:13;;;;;;;32.73;14.37;;;2.30;99.90;;;;;;4381322;32;20140;-75
2020/12/21 02:30:41;;;;;;;35.03;15.10;;;2.30;99.90;;;;;;4380998;32;20151;-75
2020/12/21 02:33:07;;;;;;;31.07;13.70;;;2.30;99.90;;;;;;4382436;32;20196;-75
2020/12/21 02:35:35;;;;;;;34.23;14.17;;;2.30;99.90;;;;;;4382439;32;20152;-75
2020/12/21 02:38:08;;;;;;;34.30;14.63;;;2.30;99.90;;;;;;4382351;32;20477;-75
2020/12/21 02:40:36;;;;;;;31.13;14.33;;;2.40;99.90;;;;;;4380885;32;20144;-75
2020/12/21 02:43:17;;;;;;;30.37;13.60;;;2.40;99.90;;;;;;4380848;32;20190;-75
2020/12/21 02:45:44;;;;;;;31.03;14.30;;;2.30;99.90;;;;;;4380817;32;20159;-75
2020/12/21 02:48:11;;;;;;;29.33;13.57;;;2.30;99.90;;;;;;4382123;32;20144;-75
2020/12/21 02:50:37;;;;;;;27.77;12.73;;;2.30;99.90;;;;;;4381141;32;20163;-75
2020/12/21 02:53:04;;;;;;;30.83;14.40;;;2.30;99.90;;;;;;4380741;32;20516;-76
2020/12/21 02:55:30;;;;;;;30.90;13.73;;;2.30;99.90;;;;;;4380691;32;20188;-75
2020/12/21 02:57:57;;;;;;;29.80;13.73;;;2.20;99.90;;;;;;4380584;32;20193;-75
2020/12/21 03:00:23;;;;;;;31.03;13.90;;;2.10;99.90;;;;;;4381728;32;20178;-76
2020/12/21 03:02:50;;;;;;;30.73;13.60;;;2.10;99.90;;;;;;4380564;32;20195;-75
2020/12/21 03:05:16;;;;;;;27.17;12.33;;;2.20;99.90;;;;;;4380735;32;20160;-74
2020/12/21 03:07:43;;;;;;;36.77;13.73;;;2.10;99.90;;;;;;4379946;32;20486;-74
2020/12/21 03:10:09;;;;;;;28.50;13.53;;;2.20;99.90;;;;;;4380398;32;20163;-74
2020/12/21 03:12:36;;;;;;;30.87;13.50;;;2.20;99.90;;;;;;4380392;32;20531;-75
2020/12/21 03:15:03;;;;;;;33.07;13.97;;;2.10;99.90;;;;;;4380951;32;20203;-74
2020/12/21 03:17:29;;;;;;;33.10;14.40;;;2.20;99.90;;;;;;4380983;32;20533;-74
2020/12/21 03:19:56;;;;;;;30.73;13.87;;;2.20;99.90;;;;;;4380258;32;20205;-75
2020/12/21 03:22:22;;;;;;;31.90;14.37;;;2.20;99.90;;;;;;4380237;32;20167;-74
2020/12/21 03:24:49;;;;;;;31.47;13.20;;;2.30;99.90;;;;;;4380431;32;20381;-74
2020/12/21 03:27:15;;;;;;;32.77;14.47;;;2.30;99.90;;;;;;4380208;32;20190;-74
2020/12/21 03:29:42;;;;;;;31.13;13.90;;;2.20;99.90;;;;;;4380086;32;20171;-74
2020/12/21 03:32:09;;;;;;;29.57;13.90;;;2.20;99.90;;;;;;4379727;32;20156;-74
2020/12/21 03:34:36;;;;;;;31.93;13.90;;;2.30;99.90;;;;;;4380066;32;20207;-74
2020/12/21 03:37:02;;;;;;;30.20;14.37;;;2.20;99.90;;;;;;4381535;32;20147;-74
2020/12/21 03:39:29;;;;;;;29.37;13.57;;;2.00;99.90;;;;;;4379937;32;20151;-74
2020/12/21 03:41:55;;;;;;;33.10;15.07;;;2.00;99.90;;;;;;4381418;32;20187;-74
2020/12/21 03:44:21;;;;;;;33.17;14.23;;;2.10;99.90;;;;;;4379962;32;20525;-74
2020/12/21 03:46:48;;;;;;;33.63;14.33;;;2.10;99.90;;;;;;4379897;32;20169;-76
2020/12/21 03:49:14;;;;;;;35.93;15.03;;;2.10;99.90;;;;;;4379795;32;20136;-75
2020/12/21 03:51:41;;;;;;;35.90;15.70;;;2.10;99.90;;;;;;4381300;32;20195;-74
2020/12/21 03:54:07;;;;;;;37.37;15.40;;;2.10;99.90;;;;;;4379738;32;20194;-74
2020/12/21 03:56:33;;;;;;;33.53;15.37;;;2.00;99.90;;;;;;4379800;32;20496;-74
2020/12/21 03:59:00;;;;;;;35.73;15.40;;;2.10;99.90;;;;;;4380367;32;20469;-74
2020/12/21 04:01:26;;;;;;;37.60;15.07;;;2.10;99.90;;;;;;4379748;32;20379;-74
2020/12/21 04:03:53;;;;;;;37.00;15.83;;;2.10;99.90;;;;;;4379605;32;20387;-74
2020/12/21 04:06:19;;;;;;;35.83;15.50;;;2.20;99.90;;;;;;4381070;32;20425;-74
2020/12/21 04:08:45;;;;;;;34.00;15.03;;;2.20;99.90;;;;;;4379618;32;20162;-74
2020/12/21 04:11:12;;;;;;;35.87;15.90;;;2.30;99.90;;;;;;4379508;32;20152;-74
2020/12/21 04:13:39;;;;;;;35.60;16.23;;;2.30;99.90;;;;;;4381243;32;20198;-74
2020/12/21 04:16:05;;;;;;;37.03;15.87;;;2.20;99.90;;;;;;4379373;32;20160;-74
2020/12/21 04:18:32;;;;;;;40.30;17.93;;;2.10;99.90;;;;;;4379391;32;20144;-74
2020/12/21 04:20:58;;;;;;;41.23;17.57;;;2.10;99.90;;;;;;4379691;32;20148;-74
2020/12/21 04:23:25;;;;;;;35.67;16.37;;;2.10;99.90;;;;;;4379360;32;20144;-75
2020/12/21 04:25:54;;;;;;;40.27;17.33;;;2.20;99.90;;;;;;4379369;32;20193;-76
2020/12/21 04:28:20;;;;;;;39.60;16.53;;;2.30;99.90;;;;;;4379352;32;20179;-74
2020/12/21 04:30:47;;;;;;;39.43;17.13;;;2.30;99.90;;;;;;4379403;32;20152;-75
2020/12/21 04:33:13;;;;;;;45.37;17.87;;;2.10;99.90;;;;;;4379588;32;20140;-74
2020/12/21 04:35:42;;;;;;;36.57;15.77;;;2.20;99.90;;;;;;4380692;32;20206;-74
2020/12/21 04:38:08;;;;;;;39.77;16.70;;;2.20;99.90;;;;;;4365748;32;20475;-75
2020/12/21 04:40:35;;;;;;;39.13;15.63;;;2.10;99.90;;;;;;4379108;32;20183;-74
2020/12/21 04:43:02;;;;;;;42.63;17.20;;;2.10;99.90;;;;;;4378943;32;20162;-74
2020/12/21 04:45:33;;;;;;;43.07;17.47;;;2.10;99.90;;;;;;4380836;32;20198;-74
2020/12/21 04:48:02;;;;;;;40.13;16.47;;;2.00;99.90;;;;;;4380127;32;20155;-74
2020/12/21 04:50:32;;;;;;;38.60;15.57;;;2.00;99.90;;;;;;4378966;32;20147;-74
2020/12/21 04:52:59;;;;;;;41.43;17.10;;;2.10;99.90;;;;;;4380119;32;20170;-74
2020/12/21 04:55:26;;;;;;;43.87;17.27;;;2.10;99.90;;;;;;4379939;32;20407;-74
2020/12/21 04:57:56;;;;;;;44.47;16.90;;;2.00;99.90;;;;;;4380483;32;20151;-75
2020/12/21 05:00:25;;;;;;;45.80;18.47;;;2.00;99.90;;;;;;4380330;32;20454;-75
2020/12/21 05:02:52;;;;;;;40.27;17.50;;;1.90;99.90;;;;;;4378813;32;20198;-76
2020/12/21 05:05:33;;;;;;;48.07;18.77;;;1.90;99.90;;;;;;4378937;32;20193;-75
2020/12/21 05:08:15;;;;;;;45.90;18.23;;;2.10;99.90;;;;;;4378988;32;20418;-75
2020/12/21 05:10:45;;;;;;;41.97;16.90;;;2.10;99.90;;;;;;4380377;32;20501;-75
2020/12/21 05:13:13;;;;;;;45.57;16.90;;;2.10;99.90;;;;;;4364939;32;20235;-75
2020/12/21 05:15:39;;;;;;;46.63;18.83;;;2.10;99.90;;;;;;4378767;32;20167;-75
2020/12/21 05:18:11;;;;;;;43.70;18.60;;;2.10;99.90;;;;;;4378827;32;20161;-75
2020/12/21 05:20:39;;;;;;;44.73;18.40;;;2.20;99.90;;;;;;4379227;32;20159;-75
2020/12/21 05:23:16;;;;;;;47.70;18.67;;;2.10;99.90;;;;;;4378816;32;20194;-75
2020/12/21 05:25:43;;;;;;;53.07;18.83;;;2.20;99.90;;;;;;4379817;32;20178;-75
2020/12/21 05:28:14;;;;;;;47.57;18.40;;;2.10;99.90;;;;;;4378825;32;20401;-75
2020/12/21 05:30:57;;;;;;;44.83;18.90;;;2.10;99.90;;;;;;4382507;32;20155;-75
2020/12/21 05:33:24;;;;;;;48.40;18.53;;;2.10;99.90;;;;;;4382118;32;20148;-74
2020/12/21 05:35:51;;;;;;;47.63;19.03;;;2.00;99.90;;;;;;4382103;32;20180;-74
2020/12/21 05:38:22;;;;;;;52.07;19.60;;;2.10;99.90;;;;;;4381718;32;20136;-74
2020/12/21 05:40:49;;;;;;;49.70;19.80;;;2.00;99.90;;;;;;4381984;32;20431;-74
2020/12/21 05:43:28;;;;;;;47.73;19.13;;;2.10;99.90;;;;;;4381137;32;20136;-74
2020/12/21 05:46:04;;;;;;;50.10;19.63;;;2.00;99.90;;;;;;4383135;32;20159;-74
2020/12/21 05:48:42;;;;;;;52.27;19.77;;;1.90;99.90;;;;;;4381939;32;20218;-74
2020/12/21 05:51:11;;;;;;;51.73;20.33;;;1.90;99.90;;;;;;4383259;32;20163;-74
2020/12/21 05:53:44;;;;;;;51.83;19.97;;;1.90;99.90;;;;;;4382223;32;20176;-74
2020/12/21 05:56:11;;;;;;;54.20;20.77;;;1.90;99.90;;;;;;4381008;32;20179;-74
2020/12/21 05:58:41;;;;;;;56.60;20.93;;;1.80;99.90;;;;;;4381428;32;20203;-74
2020/12/21 06:01:12;;;;;;;56.70;19.93;;;1.80;99.90;;;;;;4382703;32;20199;-74
2020/12/21 06:03:48;;;;;;;52.77;20.40;;;1.80;99.90;;;;;;4382949;32;20160;-74
2020/12/21 06:06:19;;;;;;;58.60;21.77;;;1.90;99.90;;;;;;4382774;32;20193;-75
2020/12/21 06:08:53;;;;;;;54.80;21.50;;;1.90;99.90;;;;;;4381566;32;20170;-75
2020/12/21 06:11:25;;;;;;;55.23;21.20;;;2.00;99.90;;;;;;4381187;32;20242;-75
2020/12/21 06:13:58;;;;;;;57.10;21.07;;;1.90;99.90;;;;;;4382726;32;20148;-75
2020/12/21 06:16:26;;;;;;;59.27;21.70;;;2.00;99.90;;;;;;4381024;32;20168;-74
2020/12/21 06:18:57;;;;;;;51.07;20.57;;;2.00;99.90;;;;;;4381056;32;20442;-75
2020/12/21 06:21:31;;;;;;;54.33;20.00;;;1.90;99.90;;;;;;4380944;32;20538;-74
2020/12/21 06:23:58;;;;;;;58.23;22.10;;;1.90;99.90;;;;;;4381128;32;20144;-74
2020/12/21 06:26:36;;;;;;;58.57;21.03;;;1.90;99.90;;;;;;4380917;32;20201;-74
2020/12/21 06:29:24;;;;;;;60.60;21.73;;;1.80;99.90;;;;;;4382696;32;20167;-74
2020/12/21 06:31:53;;;;;;;60.17;21.80;;;1.80;99.90;;;;;;4382130;32;20175;-74
2020/12/21 06:34:29;;;;;;;62.03;23.10;;;1.90;99.90;;;;;;4380717;32;20187;-74
2020/12/21 06:37:08;;;;;;;61.90;22.53;;;1.80;99.90;;;;;;4381270;32;20196;-73
2020/12/21 06:39:35;;;;;;;64.27;21.00;;;1.80;99.90;;;;;;4381333;32;20182;-72
2020/12/21 06:42:02;;;;;;;56.60;21.53;;;1.90;99.90;;;;;;4379724;32;20140;-74
2020/12/21 06:44:29;;;;;;;58.63;20.83;;;1.90;99.90;;;;;;4380541;32;20156;-74
2020/12/21 06:46:57;;;;;;;57.33;22.50;;;1.90;99.90;;;;;;4380503;32;20152;-75
2020/12/21 06:49:24;;;;;;;52.60;20.97;;;1.90;99.90;;;;;;4380591;32;20147;-74
2020/12/21 06:51:50;;;;;;;57.10;21.67;;;2.00;99.90;;;;;;4380824;32;20258;-75
2020/12/21 06:54:18;;;;;;;51.33;21.17;;;2.00;99.90;;;;;;4380473;32;20186;-74
2020/12/21 06:56:47;;;;;;;63.20;21.73;;;1.90;99.90;;;;;;4380395;32;20174;-76
2020/12/21 06:59:18;;;;;;;55.47;20.90;;;1.80;99.90;;;;;;4381910;32;20144;-75
2020/12/21 07:01:46;;;;;;;57.43;22.00;;;1.80;99.90;;;;;;4368027;32;20141;-75
2020/12/21 07:04:15;;;;;;;59.07;21.47;;;1.80;99.90;;;;;;4380207;32;20147;-75
2020/12/21 07:06:43;;;;;;;62.13;22.43;;;1.90;99.90;;;;;;4381190;32;20155;-75
2020/12/21 07:09:11;;;;;;;59.17;20.90;;;2.00;99.90;;;;;;4380202;32;20188;-73
2020/12/21 07:11:39;;;;;;;53.47;20.73;;;2.00;99.90;;;;;;4380094;32;20155;-74
2020/12/21 07:14:07;;;;;;;53.50;20.83;;;2.00;99.90;;;;;;4380126;32;20150;-74
2020/12/21 07:16:33;;;;;;;52.10;20.20;;;2.00;99.90;;;;;;4379947;32;20187;-74
2020/12/21 07:19:00;;;;;;;53.50;20.63;;;2.00;99.90;;;;;;4380916;32;20194;-73
2020/12/21 07:21:26;;;;;;;56.63;20.63;;;2.00;99.90;;;;;;4380199;32;20148;-74
2020/12/21 07:23:56;;;;;;;56.80;21.30;;;1.90;99.90;;;;;;4381091;32;20520;-74
2020/12/21 07:26:24;;;;;;;54.13;21.07;;;1.90;99.90;;;;;;4380967;32;20140;-74
2020/12/21 07:28:50;;;;;;;52.77;21.20;;;1.90;99.90;;;;;;4379729;32;20178;-74
2020/12/21 07:31:18;;;;;;;57.50;21.83;;;2.00;99.90;;;;;;4379748;32;20164;-74
2020/12/21 07:33:57;;;;;;;56.53;21.20;;;2.00;99.90;;;;;;4380061;32;20152;-75
2020/12/21 07:36:29;;;;;;;63.37;21.30;;;2.00;99.90;;;;;;4379834;32;20144;-73
2020/12/21 07:39:17;;;;;;;55.70;21.27;;;1.90;99.90;;;;;;4380877;32;20194;-73
2020/12/21 07:41:46;;;;;;;60.80;22.47;;;1.80;99.90;;;;;;4380536;32;20152;-74
2020/12/21 07:44:14;;;;;;;58.13;22.93;;;1.80;99.90;;;;;;4379468;32;20168;-73
2020/12/21 07:46:51;;;;;;;57.63;21.20;;;1.90;99.90;;;;;;4365682;32;20252;-73
2020/12/21 07:49:17;;;;;;;54.80;22.03;;;1.80;99.90;;;;;;4381227;32;20159;-73
2020/12/21 07:51:47;;;;;;;60.67;21.87;;;2.00;99.90;;;;;;4379421;32;20505;-74
2020/12/21 07:54:14;;;;;;;57.90;21.33;;;2.00;99.90;;;;;;4379507;32;20144;-73
2020/12/21 07:56:42;;;;;;;58.07;21.53;;;1.90;99.90;;;;;;4379526;32;20171;-74
2020/12/21 07:59:16;;;;;;;56.77;21.60;;;1.90;99.90;;;;;;4379486;32;20143;-74
2020/12/21 08:01:43;;;;;;;57.50;21.50;;;1.90;99.90;;;;;;4379936;32;20449;-74
2020/12/21 08:04:17;;;;;;;61.83;22.33;;;1.90;99.90;;;;;;4379368;32;20409;-74
2020/12/21 08:06:47;;;;;;;55.43;21.80;;;1.90;99.90;;;;;;4378644;32;20247;-74
2020/12/21 08:09:14;;;;;;;54.03;21.07;;;2.00;99.90;;;;;;4379339;32;20391;-73
2020/12/21 08:11:42;;;;;;;53.80;21.53;;;2.10;99.90;;;;;;4379192;32;20152;-73
2020/12/21 08:14:15;;;;;;;52.17;21.53;;;2.20;99.90;;;;;;4379347;32;20217;-74
2020/12/21 08:16:42;;;;;;;51.40;21.00;;;2.20;99.90;;;;;;4379299;32;20164;-73
2020/12/21 08:19:20;;;;;;;53.40;21.13;;;2.20;99.90;;;;;;4380140;32;20213;-75
2020/12/21 08:21:50;;;;;;;55.20;21.50;;;2.30;99.90;;;;;;4379322;32;20156;-74
2020/12/21 08:24:16;;;;;;;55.27;22.20;;;2.20;99.90;;;;;;4379346;32;20162;-73
2020/12/21 08:26:45;;;;;;;52.67;21.90;;;2.30;99.90;;;;;;4380667;32;20143;-75
2020/12/21 08:29:18;;;;;;;52.37;21.83;;;2.30;99.90;;;;;;4379040;32;20485;-74
2020/12/21 08:31:45;;;;;;;60.87;23.10;;;2.30;99.90;;;;;;4378942;32;20207;-73
2020/12/21 08:34:15;;;;;;;52.73;20.67;;;2.30;99.90;;;;;;4379137;32;20199;-73
2020/12/21 08:36:42;;;;;;;55.77;22.13;;;2.30;99.90;;;;;;4378653;32;20178;-73
2020/12/21 08:39:10;;;;;;;60.17;22.17;;;2.30;99.90;;;;;;4379238;32;20139;-73
2020/12/21 08:41:59;;;;;;;55.40;22.23;;;2.20;99.90;;;;;;4378627;32;20175;-74
2020/12/21 08:44:27;;;;;;;54.83;22.27;;;2.30;99.90;;;;;;4379352;32;20531;-73
2020/12/21 08:46:58;;;;;;;56.13;22.03;;;2.30;99.90;;;;;;4378343;32;20197;-73
2020/12/21 08:49:27;;;;;;;60.77;22.10;;;2.30;99.90;;;;;;4379571;32;20148;-74
2020/12/21 08:51:59;;;;;;;57.13;22.53;;;2.20;99.90;;;;;;4378692;32;20148;-74
2020/12/21 08:54:26;;;;;;;59.47;22.10;;;2.20;99.90;;;;;;4378981;32;20182;-74
2020/12/21 08:56:53;;;;;;;58.27;22.20;;;2.30;99.90;;;;;;4379794;32;20144;-74
2020/12/21 08:59:19;;;;;;;60.00;24.20;;;2.30;99.90;;;;;;4378880;32;20167;-74
2020/12/21 09:01:46;;;;;;;55.80;21.97;;;2.30;99.90;;;;;;4380236;32;20139;-73
2020/12/21 09:04:13;;;;;;;57.50;21.97;;;2.40;99.90;;;;;;4379129;32;20171;-74
2020/12/21 09:06:39;;;;;;;56.33;22.03;;;2.40;99.90;;;;;;4378834;32;20139;-73
2020/12/21 09:09:07;;;;;;;58.87;21.90;;;2.50;99.90;;;;;;4378916;32;20479;-74
2020/12/21 09:11:33;;;;;;;55.90;21.83;;;2.50;99.90;;;;;;4378775;32;20155;-73
2020/12/21 09:14:00;;;;;;;56.83;22.60;;;2.60;99.90;;;;;;4378605;32;20153;-74
2020/12/21 09:16:28;;;;;;;53.20;21.37;;;2.50;99.90;;;;;;4378844;32;20419;-73
2020/12/21 09:18:56;;;;;;;53.50;21.97;;;2.40;99.90;;;;;;4379298;32;20391;-74
2020/12/21 09:21:27;;;;;;;53.30;21.70;;;2.50;99.90;;;;;;4378693;32;20180;-73
2020/12/21 09:23:59;;;;;;;54.90;22.37;;;2.50;99.90;;;;;;4378553;32;20156;-73
2020/12/21 09:26:26;;;;;;;53.80;21.23;;;2.60;99.90;;;;;;4379753;32;20167;-74
2020/12/21 09:28:54;;;;;;;52.27;21.67;;;2.60;99.90;;;;;;4378838;32;20148;-74
2020/12/21 09:31:22;;;;;;;51.67;21.10;;;2.80;99.90;;;;;;4378705;32;20191;-75
2020/12/21 09:33:49;;;;;;;49.67;20.60;;;2.60;99.90;;;;;;4378536;32;20174;-74
2020/12/21 09:36:20;;;;;;;53.10;21.50;;;2.70;99.90;;;;;;4378534;32;20196;-74
2020/12/21 09:38:48;;;;;;;48.27;21.07;;;2.70;99.90;;;;;;4378597;32;20393;-73
2020/12/21 09:41:19;;;;;;;51.27;22.20;;;2.70;99.90;;;;;;4378616;32;20186;-74
2020/12/21 09:43:50;;;;;;;56.60;21.97;;;2.70;99.90;;;;;;4378538;32;20152;-75
2020/12/21 09:46:22;;;;;;;50.30;20.87;;;2.70;99.90;;;;;;4379703;32;20144;-75
2020/12/21 09:48:53;;;;;;;50.10;21.23;;;2.70;99.90;;;;;;4378584;32;20155;-75
2020/12/21 09:51:20;;;;;;;47.47;20.70;;;2.80;99.90;;;;;;4365652;32;20152;-75
2020/12/21 09:53:46;;;;;;;48.93;21.03;;;2.80;99.90;;;;;;4378758;32;20140;-75
2020/12/21 09:56:15;;;;;;;51.90;21.13;;;2.70;99.90;;;;;;4378413;32;20167;-76
2020/12/21 09:58:44;;;;;;;48.73;20.00;;;2.70;99.90;;;;;;4378270;32;20152;-75
2020/12/21 10:01:11;;;;;;;49.33;20.87;;;2.80;99.90;;;;;;4378197;32;20225;-75
2020/12/21 10:03:41;;;;;;;48.37;20.87;;;2.80;99.90;;;;;;4378312;32;20144;-75
2020/12/21 10:06:08;;;;;;;47.90;21.17;;;2.90;99.90;;;;;;4378137;32;20509;-75
2020/12/21 10:08:36;;;;;;;47.53;20.93;;;2.90;99.90;;;;;;4378406;32;20498;-75
2020/12/21 10:11:03;;;;;;;46.70;19.77;;;2.90;99.90;;;;;;4378207;32;20175;-76
2020/12/21 10:13:31;;;;;;;48.70;20.33;;;2.90;99.90;;;;;;4379896;32;20152;-75
2020/12/21 10:15:58;;;;;;;47.77;19.83;;;3.00;99.90;;;;;;4379229;32;20168;-75
2020/12/21 10:18:24;;;;;;;51.13;20.73;;;3.00;99.90;;;;;;4382322;32;20147;-75
2020/12/21 10:20:50;;;;;;;48.17;20.70;;;3.00;99.90;;;;;;4381236;32;20148;-76
2020/12/21 10:23:17;;;;;;;47.23;20.40;;;3.10;99.90;;;;;;4381009;32;20190;-75
2020/12/21 10:25:43;;;;;;;50.90;21.67;;;3.10;99.90;;;;;;4381016;32;20183;-75
2020/12/21 10:28:09;;;;;;;47.90;20.03;;;3.10;99.90;;;;;;4380958;32;20140;-75
2020/12/21 10:30:38;;;;;;;47.57;20.60;;;3.00;99.90;;;;;;4380794;32;20205;-76
2020/12/21 10:33:04;;;;;;;48.93;21.27;;;3.10;99.90;;;;;;4382363;32;20402;-76
2020/12/21 10:35:31;;;;;;;51.57;21.07;;;3.10;99.90;;;;;;4380907;32;20152;-76
2020/12/21 10:37:58;;;;;;;47.40;21.13;;;3.10;99.90;;;;;;4380756;32;20164;-75
2020/12/21 10:40:24;;;;;;;43.90;19.97;;;3.10;99.90;;;;;;4380759;32;20458;-76
2020/12/21 10:42:51;;;;;;;45.83;19.83;;;3.20;99.90;;;;;;4380953;32;20172;-75
2020/12/21 10:45:17;;;;;;;45.47;19.87;;;3.30;99.90;;;;;;4367163;32;20180;-76
2020/12/21 10:47:43;;;;;;;48.47;19.97;;;3.20;99.90;;;;;;4381960;32;20167;-75
2020/12/21 10:50:10;;;;;;;56.63;21.13;;;3.20;99.90;;;;;;4380564;32;20375;-75
2020/12/21 10:52:37;;;;;;;46.53;20.57;;;3.30;99.90;;;;;;4380468;32;20149;-75
2020/12/21 10:55:04;;;;;;;44.77;20.03;;;3.40;99.90;;;;;;4381874;32;20149;-75
2020/12/21 10:57:30;;;;;;;48.50;21.23;;;3.20;99.90;;;;;;4380584;32;20464;-74
2020/12/21 10:59:57;;;;;;;45.00;19.57;;;3.30;99.90;;;;;;4379990;32;20195;-75
2020/12/21 11:02:23;;;;;;;47.57;19.53;;;3.30;99.90;;;;;;4381829;32;20186;-74
2020/12/21 11:04:49;;;;;;;45.93;19.67;;;3.50;99.90;;;;;;4379931;32;20490;-75
2020/12/21 11:07:16;;;;;;;45.63;19.30;;;3.50;99.90;;;;;;4380308;32;20186;-75
2020/12/21 11:09:42;;;;;;;44.43;19.40;;;3.50;99.90;;;;;;4381820;32;20197;-76
2020/12/21 11:12:09;;;;;;;45.00;19.23;;;3.50;99.90;;;;;;4379931;32;20172;-76
2020/12/21 11:14:35;;;;;;;43.03;19.13;;;3.50;99.90;;;;;;4380099;32;20211;-75
2020/12/21 11:17:02;;;;;;;42.37;19.63;;;3.40;99.90;;;;;;4379907;32;20226;-76
2020/12/21 11:19:28;;;;;;;45.90;20.13;;;3.40;99.90;;;;;;4380133;32;20217;-74
2020/12/21 11:21:55;;;;;;;49.97;20.67;;;3.40;99.90;;;;;;4380144;32;20148;-75
2020/12/21 11:24:21;;;;;;;49.53;20.37;;;3.50;99.90;;;;;;4380230;32;20228;-75
2020/12/21 11:26:51;;;;;;;46.90;19.77;;;3.70;99.90;;;;;;4379809;32;20201;-75
2020/12/21 11:29:18;;;;;;;40.63;19.03;;;3.80;99.90;;;;;;4379891;32;20149;-75
2020/12/21 11:31:44;;;;;;;44.00;20.07;;;3.90;99.90;;;;;;4380289;32;20148;-75
2020/12/21 11:34:11;;;;;;;43.93;19.93;;;4.00;99.90;;;;;;4379418;32;20548;-75
2020/12/21 11:36:44;;;;;;;47.00;20.00;;;4.00;99.90;;;;;;4379960;32;20189;-76
2020/12/21 11:39:12;;;;;;;44.70;19.60;;;4.10;99.90;;;;;;4367346;32;20414;-75
2020/12/21 11:41:38;;;;;;;42.47;19.03;;;4.20;99.90;;;;;;4379898;32;20170;-75
2020/12/21 11:44:05;;;;;;;44.63;18.43;;;4.20;99.90;;;;;;4381046;32;20167;-75
2020/12/21 11:46:36;;;;;;;46.47;20.70;;;4.20;99.90;;;;;;4380391;32;20203;-76
2020/12/21 11:49:04;;;;;;;43.93;19.80;;;4.10;99.90;;;;;;4380187;32;20203;-76
2020/12/21 11:51:30;;;;;;;40.70;19.27;;;4.10;99.90;;;;;;4378956;32;20207;-75
2020/12/21 11:53:56;;;;;;;43.57;19.53;;;4.30;99.90;;;;;;4380598;32;20166;-75
2020/12/21 11:56:23;;;;;;;46.13;19.87;;;4.20;99.90;;;;;;4365724;32;20170;-75
2020/12/21 11:58:49;;;;;;;44.40;19.23;;;4.30;99.90;;;;;;4367649;32;20148;-75
2020/12/21 12:01:17;;;;;;;43.90;19.33;;;4.30;99.90;;;;;;4379585;32;20164;-74
2020/12/21 12:03:44;;;;;;;42.43;19.10;;;4.40;99.90;;;;;;4378927;32;20168;-74
2020/12/21 12:06:10;;;;;;;41.97;18.53;;;4.30;99.90;;;;;;4379111;32;20139;-74
2020/12/21 12:08:37;;;;;;;50.53;20.63;;;4.30;99.90;;;;;;4378946;32;20144;-74
2020/12/21 12:11:06;;;;;;;43.80;19.07;;;4.20;99.90;;;;;;4381117;32;20179;-74
2020/12/21 12:13:38;;;;;;;41.60;20.07;;;4.30;99.90;;;;;;4379405;32;20144;-74
2020/12/21 12:16:04;;;;;;;43.57;19.17;;;4.30;99.90;;;;;;4379543;32;20187;-74
2020/12/21 12:18:31;;;;;;;48.00;21.37;;;4.40;99.90;;;;;;4379203;32;20203;-76
2020/12/21 12:20:57;;;;;;;44.27;19.90;;;4.40;99.90;;;;;;4379434;32;20501;-75
2020/12/21 12:23:24;;;;;;;48.73;20.80;;;4.20;99.90;;;;;;4380674;32;20150;-74
2020/12/21 12:25:50;;;;;;;41.03;18.63;;;4.10;99.90;;;;;;4380880;32;20190;-74
2020/12/21 12:28:18;;;;;;;42.17;19.17;;;4.10;99.90;;;;;;4380297;32;20194;-74
2020/12/21 12:30:44;;;;;;;47.77;20.73;;;4.10;99.90;;;;;;4378959;32;20480;-74
2020/12/21 12:33:11;;;;;;;49.97;20.43;;;4.00;99.90;;;;;;4378469;32;20146;-74
2020/12/21 12:35:37;;;;;;;45.93;19.93;;;4.00;99.90;;;;;;4378804;32;20149;-75
2020/12/21 12:38:04;;;;;;;46.17;19.80;;;4.10;99.90;;;;;;4378948;32;20243;-74
2020/12/21 12:40:31;;;;;;;46.37;20.57;;;4.10;99.90;;;;;;4379690;32;20147;-74
2020/12/21 12:42:57;;;;;;;43.40;19.37;;;4.10;99.90;;;;;;4378988;32;20156;-73